createdAt,value
2024-01-27T00:02:49.488Z,42.35
2024-01-27T02:48:09.585Z,34.97
2024-01-27T04:19:49.367Z,33.83
2024-01-27T16:55:49.431Z,68.03
2024-01-27T16:58:34.532Z,67.20
2024-01-27T17:01:36.349Z,68.80
2024-01-27T17:04:43.330Z,66.65
2024-01-27T17:07:11.787Z,69.18
2024-01-27T17:09:39.694Z,66.78
2024-01-27T17:12:10.077Z,66.57
2024-01-27T17:14:41.569Z,68.93
2024-01-27T17:17:09.268Z,67.55
2024-01-27T17:19:37.267Z,65.50
2024-01-27T17:22:33.358Z,65.05
2024-01-27T17:25:07.513Z,63.80
2024-01-27T17:27:35.267Z,66.03
2024-01-27T17:30:11.441Z,69.68
2024-01-27T17:32:46.269Z,68.47
2024-01-27T17:35:14.499Z,69.18
2024-01-27T17:37:44.592Z,68.45
2024-01-27T17:40:12.955Z,67.10
2024-01-27T17:42:41.485Z,66.53
2024-01-27T17:45:12.212Z,69.10
2024-01-27T17:47:43.597Z,64.97
2024-01-27T17:50:11.928Z,66.63
2024-01-27T17:52:42.475Z,70.38
2024-01-27T17:55:11.745Z,67.93
2024-01-27T17:57:40.213Z,65.15
2024-01-27T18:00:11.345Z,66.05
2024-01-27T18:02:39.414Z,70.00
2024-01-27T18:05:07.424Z,63.90
2024-01-27T18:07:35.044Z,65.00
2024-01-27T18:10:03.210Z,64.95
2024-01-27T18:12:30.876Z,63.40
2024-01-27T18:14:58.786Z,68.03
2024-01-27T18:17:27.125Z,64.97
2024-01-27T18:19:58.677Z,67.38
2024-01-27T18:22:31.297Z,67.72
2024-01-27T18:25:00.169Z,68.47
2024-01-27T18:27:28.126Z,67.38
2024-01-27T18:30:04.391Z,68.13
2024-01-27T18:32:44.691Z,68.05
2024-01-27T18:35:16.704Z,68.25
2024-01-27T18:37:45.854Z,64.40
2024-01-27T18:40:14.052Z,68.90
2024-01-27T18:42:43.194Z,65.50
2024-01-27T18:45:17.427Z,66.65
2024-01-27T18:47:48.995Z,68.32
2024-01-27T18:50:20.869Z,70.60
2024-01-27T18:52:55.338Z,69.45
2024-01-27T18:55:26.780Z,69.60
2024-01-27T18:57:54.582Z,79.60
2024-01-27T19:00:23.414Z,74.45
2024-01-27T19:02:51.088Z,72.35
2024-01-27T19:05:20.553Z,70.60
2024-01-27T19:07:51.039Z,66.55
2024-01-27T19:10:19.019Z,66.40
2024-01-27T19:12:47.251Z,68.82
2024-01-27T19:15:16.027Z,69.63
2024-01-27T19:17:43.999Z,69.47
2024-01-27T19:20:15.017Z,69.80
2024-01-27T19:22:44.718Z,69.78
2024-01-27T19:25:12.286Z,67.55
2024-01-27T19:27:40.127Z,68.20
2024-01-27T19:30:08.607Z,67.55
2024-01-27T19:32:36.389Z,68.80
2024-01-27T19:35:05.084Z,68.85
2024-01-27T19:37:33.783Z,69.28
2024-01-27T19:40:01.486Z,69.25
2024-01-27T19:42:29.300Z,71.45
2024-01-27T19:44:57.492Z,71.28
2024-01-27T19:47:27.454Z,71.13
2024-01-27T19:49:59.665Z,68.88
2024-01-27T19:52:27.469Z,69.28
2024-01-27T19:54:55.113Z,71.40
2024-01-27T19:57:22.752Z,67.93
2024-01-27T19:59:50.557Z,67.55
2024-01-27T20:02:18.250Z,67.72
2024-01-27T20:04:48.751Z,62.53
2024-01-27T20:07:16.855Z,63.35
2024-01-27T20:09:44.536Z,62.15
2024-01-27T20:12:12.246Z,62.42
2024-01-27T20:14:39.835Z,60.42
2024-01-27T20:17:08.222Z,58.35
2024-01-27T20:19:36.846Z,58.22
2024-01-27T20:22:04.878Z,59.00
2024-01-27T20:24:32.926Z,58.88
2024-01-27T20:27:00.648Z,57.83
2024-01-27T20:29:28.371Z,56.42
2024-01-27T20:31:57.152Z,59.30
2024-01-27T20:35:04.046Z,63.40
2024-01-27T20:37:33.108Z,60.28
2024-01-27T20:40:04.710Z,58.17
2024-01-27T20:42:32.953Z,60.33
2024-01-27T20:45:19.309Z,61.03
2024-01-27T20:47:59.181Z,59.17
2024-01-27T20:50:31.807Z,60.60
2024-01-27T20:53:37.363Z,57.95
2024-01-27T20:56:11.487Z,60.22
2024-01-27T20:58:45.192Z,61.13
2024-01-27T21:01:18.820Z,60.53
2024-01-27T21:03:49.787Z,58.13
2024-01-27T21:06:17.658Z,57.17
2024-01-27T21:08:45.368Z,56.15
2024-01-27T21:11:14.659Z,52.72
2024-01-27T21:13:43.605Z,55.35
2024-01-27T21:16:12.442Z,56.20
2024-01-27T21:18:44.527Z,56.70
2024-01-27T21:21:12.309Z,56.33
2024-01-27T21:23:42.630Z,56.67
2024-01-27T21:26:10.368Z,58.72
2024-01-27T21:28:38.203Z,55.72
2024-01-27T21:31:06.054Z,60.42
2024-01-27T21:33:34.902Z,57.78
2024-01-27T21:36:08.787Z,57.70
2024-01-27T21:38:36.677Z,58.00
2024-01-27T21:41:11.339Z,57.33
2024-01-27T21:43:41.906Z,56.08
2024-01-27T21:46:12.939Z,59.35
2024-01-27T21:48:43.395Z,56.85
2024-01-27T21:51:11.628Z,54.58
2024-01-27T21:53:41.730Z,57.22
2024-01-27T21:56:13.083Z,55.67
2024-01-27T21:58:43.858Z,55.05
2024-01-27T22:01:18.276Z,53.75
2024-01-27T22:06:18.406Z,51.10
2024-01-27T22:08:48.670Z,57.33
2024-01-27T22:11:16.623Z,51.85
2024-01-27T22:14:26.044Z,49.25
2024-01-27T22:20:41.238Z,48.35
2024-01-27T22:26:17.533Z,49.42
2024-01-27T22:29:35.345Z,46.78
2024-01-27T22:35:36.224Z,47.72
2024-01-27T22:38:22.358Z,49.35
2024-01-27T22:40:58.978Z,48.60
2024-01-27T22:43:56.226Z,49.97
2024-01-27T22:47:05.426Z,46.78
2024-01-27T22:49:40.734Z,48.88
2024-01-27T22:52:48.051Z,51.50
2024-01-27T22:58:54.213Z,46.80
2024-01-27T23:01:54.330Z,46.47
2024-01-27T23:04:59.208Z,48.55
2024-01-27T23:31:35.696Z,46.75
